Time,TemperatureF,DewpointF,PressureIn,WindDirection,WindDirectionDegrees,WindSpeedMPH,WindSpeedGustMPH,Humidity,HourlyPrecipIn,Conditions,Clouds,dailyrainin,SolarRadiationWatts/m^2,SoftwareType,DateUTC
2013-03-04 16:26:00,88.3,34.8,29.58,SE,135,3.5,3.5,15,0.00,OVC,,0.00,390.0,WeatherDisplay:10.37,2013-03-04 22:26:00,
2013-03-04 16:30:00,88.7,36.7,29.58,South,180,13.6,13.6,16,0.00,SCT,,0.00,370.0,WeatherDisplay:10.37,2013-03-04 22:30:00,
2013-03-04 16:34:00,88.5,35.0,29.58,WSW,248,3.5,3.5,15,0.00,BKN,,0.00,370.0,WeatherDisplay:10.37,2013-03-04 22:34:00,
2013-03-04 16:39:00,88.3,36.4,29.58,South,180,4.9,4.9,16,0.00,OVC,,0.00,250.0,WeatherDisplay:10.37,2013-03-04 22:39:00,
2013-03-04 16:44:00,88.0,36.2,29.58,SW,225,5.4,5.4,16,0.00,OVC,,0.00,260.0,WeatherDisplay:10.37,2013-03-04 22:44:00,
2013-03-04 16:49:00,88.0,36.2,29.58,South,180,3.5,3.5,16,0.00,OVC,,0.00,260.0,WeatherDisplay:10.37,2013-03-04 22:49:00,
2013-03-04 16:54:00,87.8,36.0,29.58,South,180,6.9,6.9,16,0.00,OVC,,0.00,290.0,WeatherDisplay:10.37,2013-03-04 22:54:00,
2013-03-04 17:00:00,87.8,39.0,29.58,SW,225,8.5,8.5,18,0.00,OVC,,0.00,270.0,WeatherDisplay:10.37,2013-03-04 23:00:00,
2013-03-04 17:05:00,87.6,38.9,29.58,SSE,158,9.2,9.2,18,0.00,OVC,,0.00,270.0,WeatherDisplay:10.37,2013-03-04 23:05:00,
2013-03-04 17:10:00,87.4,38.7,29.59,SE,135,5.8,5.8,18,0.00,OVC,,0.00,150.0,WeatherDisplay:10.37,2013-03-04 23:10:00,
2013-03-04 17:15:00,87.3,40.0,29.59,SSE,158,4.9,4.9,19,0.00,OVC,,0.00,110.0,WeatherDisplay:10.37,2013-03-04 23:15:00,
2013-03-04 17:21:00,86.4,39.2,29.59,SSE,158,2.3,3.6,19,0.00,OVC,,0.00,80.0,WeatherDisplay:10.37,2013-03-04 23:21:00,
2013-03-04 17:26:00,85.8,40.1,29.59,SSE,158,13.0,13.0,20,0.00,OVC,,0.00,70.0,WeatherDisplay:10.37,2013-03-04 23:26:00,
2013-03-04 17:31:00,85.5,39.8,29.59,South,180,12.7,12.7,20,0.00,OVC,,0.00,60.0,WeatherDisplay:10.37,2013-03-04 23:31:00,
2013-03-04 17:36:00,85.1,39.5,29.59,SE,135,4.6,4.6,20,0.00,OVC,,0.00,50.0,WeatherDisplay:10.37,2013-03-04 23:36:00,
2013-03-04 17:41:00,84.7,39.2,29.59,SSE,158,4.6,4.6,20,0.00,OVC,,0.00,50.0,WeatherDisplay:10.37,2013-03-04 23:41:00,
2013-03-04 17:47:00,84.6,40.3,29.59,SSW,202,9.2,9.2,21,0.00,OVC,,0.00,40.0,WeatherDisplay:10.37,2013-03-04 23:47:00,
2013-03-04 17:52:00,84.0,39.9,29.59,SSE,158,4.6,4.6,21,0.00,OVC,,0.00,30.0,WeatherDisplay:10.37,2013-03-04 23:52:00,
2013-03-04 17:57:00,84.0,39.9,29.59,South,180,4.6,4.6,21,0.00,OVC,,0.00,20.0,WeatherDisplay:10.37,2013-03-04 23:57:00,
2013-03-04 18:03:00,82.8,44.4,29.59,South,180,7.1,7.1,26,0.00,OVC,,0.00,10.0,WeatherDisplay:10.37,2013-03-05 00:03:00,
2013-03-04 18:08:00,82.8,44.4,29.59,South,180,5.8,5.8,26,0.00,OVC,,0.00,0.0,WeatherDisplay:10.37,2013-03-05 00:08:00,
2013-03-04 18:13:00,82.8,44.4,29.61,South,180,5.8,5.8,26,0.00,OVC,,0.00,0.0,WeatherDisplay:10.37,2013-03-05 00:13:00,
2013-03-04 18:19:00,81.1,45.9,29.61,South,180,8.1,8.1,29,0.00,OVC,,0.00,0.0,WeatherDisplay:10.37,2013-03-05 00:19:00,
2013-03-04 18:24:00,81.1,45.9,29.61,South,180,5.8,5.8,29,0.00,OVC,,0.00,0.0,WeatherDisplay:10.37,2013-03-05 00:24:00,
2013-03-04 18:29:00,80.4,45.2,29.61,SE,135,12.1,12.1,29,0.00,OVC,,0.00,0.0,WeatherDisplay:10.37,2013-03-05 00:29:00,
2013-03-04 18:34:00,80.1,45.8,29.61,SSE,158,4.6,4.6,30,0.00,OVC,,0.00,0.0,WeatherDisplay:10.37,2013-03-05 00:34:00,
2013-03-04 18:40:00,79.7,45.5,29.61,SE,135,3.5,3.7,30,0.00,OVC,,0.00,0.0,WeatherDisplay:10.37,2013-03-05 00:40:00,
2013-03-04 18:45:00,79.3,46.1,29.61,SW,225,10.4,10.4,31,0.00,OVC,,0.00,0.0,WeatherDisplay:10.37,2013-03-05 00:45:00,
2013-03-04 18:50:00,78.8,45.6,29.61,SE,135,3.5,4.4,31,0.00,OVC,,0.00,0.0,WeatherDisplay:10.37,2013-03-05 00:50:00,
2013-03-04 18:55:00,78.8,46.4,29.61,South,180,5.8,5.8,32,0.00,OVC,,0.00,0.0,WeatherDisplay:10.37,2013-03-05 00:55:00,
2013-03-04 19:01:00,78.3,46.0,29.61,South,180,6.9,6.9,32,0.00,CLR,,0.00,0.0,WeatherDisplay:10.37,2013-03-05 01:01:00,
2013-03-04 19:06:00,78.1,46.6,29.61,East,90,7.5,7.5,33,0.00,CLR,,0.00,0.0,WeatherDisplay:10.37,2013-03-05 01:06:00,
2013-03-04 19:11:00,77.5,46.2,29.62,SE,135,6.9,6.9,33,0.00,CLR,,0.00,0.0,WeatherDisplay:10.37,2013-03-05 01:11:00,
2013-03-04 19:16:00,77.2,47.4,29.62,SSE,158,2.3,4.3,35,0.00,CLR,,0.00,0.0,WeatherDisplay:10.37,2013-03-05 01:16:00,
2013-03-04 19:21:00,76.8,47.8,29.62,SE,135,6.9,6.9,36,0.00,CLR,,0.00,0.0,WeatherDisplay:10.37,2013-03-05 01:21:00,
2013-03-04 19:27:00,76.5,47.5,29.62,SSE,158,9.2,9.2,36,0.00,CLR,,0.00,10.0,WeatherDisplay:10.37,2013-03-05 01:27:00,
2013-03-04 19:32:00,76.3,48.1,29.63,South,180,4.6,4.6,37,0.00,CLR,,0.00,10.0,WeatherDisplay:10.37,2013-03-05 01:32:00,
2013-03-04 19:37:00,75.9,47.8,29.63,SSE,158,9.2,9.2,37,0.00,CLR,,0.00,10.0,WeatherDisplay:10.37,2013-03-05 01:37:00,
2013-03-04 19:43:00,75.7,47.6,29.63,SSE,158,4.6,4.6,37,0.00,CLR,,0.00,20.0,WeatherDisplay:10.37,2013-03-05 01:43:00,
2013-03-04 19:48:00,75.4,48.0,29.63,SSE,158,4.6,4.6,38,0.00,CLR,,0.00,20.0,WeatherDisplay:10.37,2013-03-05 01:48:00,
2013-03-04 19:53:00,75.0,48.4,29.64,SSE,158,5.8,5.8,39,0.00,CLR,,0.00,20.0,WeatherDisplay:10.37,2013-03-05 01:53:00,
2013-03-04 19:58:00,74.8,48.2,29.64,SSE,158,3.5,3.9,39,0.00,CLR,,0.00,30.0,WeatherDisplay:10.37,2013-03-05 01:58:00,
2013-03-04 20:03:00,74.5,48.6,29.64,South,180,5.8,5.8,40,0.00,CLR,,0.00,30.0,WeatherDisplay:10.37,2013-03-05 02:03:00,
2013-03-04 20:08:00,74.3,48.4,29.64,South,180,4.6,4.6,40,0.00,CLR,,0.00,40.0,WeatherDisplay:10.37,2013-03-05 02:08:00,
2013-03-04 20:14:00,74.3,48.4,29.64,South,180,8.5,8.5,40,0.00,CLR,,0.00,40.0,WeatherDisplay:10.37,2013-03-05 02:14:00,
2013-03-04 20:19:00,73.8,49.2,29.64,SSE,158,5.8,5.8,42,0.00,CLR,,0.00,70.0,WeatherDisplay:10.37,2013-03-05 02:19:00,
2013-03-04 20:24:00,73.6,49.7,29.64,South,180,5.8,5.8,43,0.00,CLR,,0.00,70.0,WeatherDisplay:10.37,2013-03-05 02:24:00,
2013-03-04 20:30:00,73.2,49.4,29.64,South,180,5.8,5.8,43,0.00,CLR,,0.00,70.0,WeatherDisplay:10.37,2013-03-05 02:30:00,
2013-03-04 20:35:00,73.0,49.8,29.65,SSE,158,4.8,4.8,44,0.00,CLR,,0.00,50.0,WeatherDisplay:10.37,2013-03-05 02:35:00,
2013-03-04 20:40:00,72.9,49.7,29.65,SSE,158,6.6,6.6,44,0.00,CLR,,0.00,50.0,WeatherDisplay:10.37,2013-03-05 02:40:00,
2013-03-04 20:45:00,72.5,49.3,29.65,South,180,6.9,6.9,44,0.00,CLR,,0.00,50.0,WeatherDisplay:10.37,2013-03-05 02:45:00,
2013-03-04 20:50:00,72.1,49.6,29.65,SSE,158,4.3,4.3,45,0.00,CLR,,0.00,40.0,WeatherDisplay:10.37,2013-03-05 02:50:00,
2013-03-04 20:55:00,72.1,49.6,29.65,South,180,3.6,3.6,45,0.00,CLR,,0.00,40.0,WeatherDisplay:10.37,2013-03-05 02:55:00,
2013-03-04 21:01:00,71.6,49.1,29.65,SSE,158,3.5,3.5,45,0.00,CLR,,0.00,40.0,WeatherDisplay:10.37,2013-03-05 03:01:00,
2013-03-04 21:06:00,71.4,49.6,29.65,South,180,5.8,5.8,46,0.00,CLR,,0.00,40.0,WeatherDisplay:10.37,2013-03-05 03:06:00,
2013-03-04 21:11:00,71.4,49.6,29.65,SE,135,5.8,5.8,46,0.00,CLR,,0.00,50.0,WeatherDisplay:10.37,2013-03-05 03:11:00,
2013-03-04 21:17:00,71.1,49.8,29.65,SSE,158,4.6,4.6,47,0.00,CLR,,0.00,50.0,WeatherDisplay:10.37,2013-03-05 03:17:00,
2013-03-04 21:22:00,70.7,49.5,29.65,SE,135,4.6,4.6,47,0.00,CLR,,0.00,80.0,WeatherDisplay:10.37,2013-03-05 03:22:00,
2013-03-04 21:27:00,70.7,49.5,29.65,ESE,112,2.3,3.2,47,0.00,CLR,,0.00,80.0,WeatherDisplay:10.37,2013-03-05 03:27:00,
2013-03-04 21:32:00,70.3,49.7,29.65,SSE,158,4.6,4.6,48,0.00,CLR,,0.00,70.0,WeatherDisplay:10.37,2013-03-05 03:32:00,
2013-03-04 21:37:00,70.2,49.5,29.65,South,180,6.9,6.9,48,0.00,CLR,,0.00,70.0,WeatherDisplay:10.37,2013-03-05 03:37:00,
2013-03-04 21:43:00,70.0,49.4,29.65,South,180,3.5,3.5,48,0.00,CLR,,0.00,80.0,WeatherDisplay:10.37,2013-03-05 03:43:00,
2013-03-04 21:48:00,70.0,49.4,29.65,SSE,158,5.8,5.8,48,0.00,CLR,,0.00,70.0,WeatherDisplay:10.37,2013-03-05 03:48:00,
2013-03-04 21:53:00,69.4,49.4,29.66,ESE,112,5.8,5.8,49,0.00,CLR,,0.00,80.0,WeatherDisplay:10.37,2013-03-05 03:53:00,
2013-03-04 21:58:00,69.4,49.4,29.66,South,180,4.6,4.6,49,0.00,CLR,,0.00,90.0,WeatherDisplay:10.37,2013-03-05 03:58:00,
2013-03-04 22:04:00,69.4,49.4,29.66,SSE,158,9.2,9.2,49,0.00,CLR,,0.00,80.0,WeatherDisplay:10.37,2013-03-05 04:04:00,
2013-03-04 22:09:00,69.4,49.4,29.66,SE,135,5.8,5.8,49,0.00,CLR,,0.00,80.0,WeatherDisplay:10.37,2013-03-05 04:09:00,
2013-03-04 22:14:00,69.4,49.4,29.66,SSE,158,7.9,7.9,49,0.00,CLR,,0.00,100.0,WeatherDisplay:10.37,2013-03-05 04:14:00,
2013-03-04 22:19:00,69.4,49.4,29.66,South,180,6.9,6.9,49,0.00,CLR,,0.00,100.0,WeatherDisplay:10.37,2013-03-05 04:19:00,
2013-03-04 22:24:00,69.4,49.4,29.66,SSE,158,4.0,4.4,49,0.00,CLR,,0.00,110.0,WeatherDisplay:10.37,2013-03-05 04:24:00,
2013-03-04 22:30:00,69.4,49.4,29.66,SE,135,8.1,8.1,49,0.00,CLR,,0.00,0.0,WeatherDisplay:10.37,2013-03-05 04:30:00,
2013-03-04 22:35:00,69.4,49.4,29.65,NNE,22,5.8,5.8,49,0.00,CLR,,0.00,0.0,WeatherDisplay:10.37,2013-03-05 04:35:00,
2013-03-04 22:40:00,69.4,49.4,29.65,WNW,292,2.3,3.9,49,0.00,CLR,,0.00,0.0,WeatherDisplay:10.37,2013-03-05 04:40:00,
2013-03-04 22:45:00,69.4,49.4,29.65,South,180,9.2,9.2,49,0.00,CLR,,0.00,340.0,WeatherDisplay:10.37,2013-03-05 04:45:00,
2013-03-04 22:50:00,69.4,49.4,29.71,SE,135,1.2,4.4,49,0.00,CLR,,0.00,420.0,WeatherDisplay:10.37,2013-03-05 04:50:00,
2013-03-04 22:55:00,69.4,49.4,29.71,NW,315,2.4,2.8,49,0.00,CLR,,0.00,430.0,WeatherDisplay:10.37,2013-03-05 04:55:00,
2013-03-04 23:00:00,69.4,49.4,29.71,SE,135,2.3,2.3,49,0.00,CLR,,0.00,350.0,WeatherDisplay:10.37,2013-03-05 05:00:00,
2013-03-04 23:06:00,69.4,49.4,29.71,NW,315,1.4,1.8,49,0.00,CLR,,0.00,190.0,WeatherDisplay:10.37,2013-03-05 05:06:00,
2013-03-04 23:11:00,69.4,49.4,29.71,NW,315,2.3,2.3,49,0.00,CLR,,0.00,90.0,WeatherDisplay:10.37,2013-03-05 05:11:00,
2013-03-04 23:16:00,69.4,49.4,29.71,South,180,5.8,5.8,49,0.00,CLR,,0.00,40.0,WeatherDisplay:10.37,2013-03-05 05:16:00,
2013-03-04 23:21:00,69.4,49.4,29.71,NNW,338,8.1,8.1,49,0.00,CLR,,0.00,60.0,WeatherDisplay:10.37,2013-03-05 05:21:00,
2013-03-04 23:27:00,69.4,49.4,29.71,NW,315,9.2,9.2,49,0.00,CLR,,0.00,220.0,WeatherDisplay:10.37,2013-03-05 05:27:00,
2013-03-04 23:32:00,69.4,49.4,29.75,NNW,338,12.7,12.7,49,0.00,CLR,,0.00,300.0,WeatherDisplay:10.37,2013-03-05 05:32:00,
2013-03-04 23:37:00,69.4,49.4,29.75,North,0,6.9,6.9,49,0.00,CLR,,0.00,280.0,WeatherDisplay:10.37,2013-03-05 05:37:00,
2013-03-04 23:42:00,69.4,49.4,29.75,NW,315,8.1,8.1,49,0.00,CLR,,0.00,280.0,WeatherDisplay:10.37,2013-03-05 05:42:00,
2013-03-04 23:48:00,69.4,49.4,29.75,NNW,338,15.3,15.3,49,0.00,CLR,,0.00,260.0,WeatherDisplay:10.37,2013-03-05 05:48:00,
2013-03-04 23:53:00,69.4,49.4,29.78,NNE,22,10.4,10.4,49,0.00,CLR,,0.00,210.0,WeatherDisplay:10.37,2013-03-05 05:53:00,
2013-03-04 23:58:00,69.4,49.4,29.78,NW,315,13.8,13.8,49,0.00,CLR,,0.00,170.0,WeatherDisplay:10.37,2013-03-05 05:58:00,